sensor_id;sensor_type;location;lat;lon;timestamp;P1;durP1;ratioP1;P2;durP2;ratioP2
26102;SDS011;69760;49.380;8.998;2023-07-29T00:01:20;2.97;;;2.53;;
26102;SDS011;69760;49.380;8.998;2023-07-29T00:03:45;3.80;;;2.03;;
26102;SDS011;69760;49.380;8.998;2023-07-29T00:06:11;2.60;;;2.40;;
26102;SDS011;69760;49.380;8.998;2023-07-29T00:08:36;2.90;;;2.60;;
26102;SDS011;69760;49.380;8.998;2023-07-29T00:11:02;2.83;;;2.58;;
26102;SDS011;69760;49.380;8.998;2023-07-29T00:13:28;3.50;;;2.60;;
26102;SDS011;69760;49.380;8.998;2023-07-29T00:15:54;3.60;;;2.97;;
26102;SDS011;69760;49.380;8.998;2023-07-29T00:18:20;3.17;;;2.83;;
26102;SDS011;69760;49.380;8.998;2023-07-29T00:20:46;3.22;;;2.92;;
26102;SDS011;69760;49.380;8.998;2023-07-29T00:23:12;3.00;;;2.65;;
26102;SDS011;69760;49.380;8.998;2023-07-29T00:25:37;4.20;;;3.25;;
26102;SDS011;69760;49.380;8.998;2023-07-29T00:28:03;3.78;;;2.80;;
26102;SDS011;69760;49.380;8.998;2023-07-29T00:30:29;4.38;;;3.00;;
26102;SDS011;69760;49.380;8.998;2023-07-29T00:32:54;2.75;;;2.30;;
26102;SDS011;69760;49.380;8.998;2023-07-29T00:35:20;4.15;;;3.00;;
26102;SDS011;69760;49.380;8.998;2023-07-29T00:37:45;5.13;;;3.03;;
26102;SDS011;69760;49.380;8.998;2023-07-29T00:40:15;6.22;;;2.95;;
26102;SDS011;69760;49.380;8.998;2023-07-29T00:42:47;3.70;;;2.85;;
26102;SDS011;69760;49.380;8.998;2023-07-29T00:45:13;5.20;;;2.50;;
26102;SDS011;69760;49.380;8.998;2023-07-29T00:47:39;3.22;;;2.70;;
26102;SDS011;69760;49.380;8.998;2023-07-29T00:50:06;3.75;;;3.05;;
26102;SDS011;69760;49.380;8.998;2023-07-29T00:52:34;5.00;;;3.30;;
26102;SDS011;69760;49.380;8.998;2023-07-29T00:54:59;4.60;;;4.05;;
26102;SDS011;69760;49.380;8.998;2023-07-29T00:57:25;4.68;;;3.63;;
26102;SDS011;69760;49.380;8.998;2023-07-29T00:59:53;4.65;;;3.65;;
26102;SDS011;69760;49.380;8.998;2023-07-29T01:02:19;6.57;;;3.20;;
26102;SDS011;69760;49.380;8.998;2023-07-29T01:04:45;3.95;;;3.30;;
26102;SDS011;69760;49.380;8.998;2023-07-29T01:09:55;6.65;;;3.92;;
26102;SDS011;69760;49.380;8.998;2023-07-29T01:12:47;6.15;;;4.38;;
26102;SDS011;69760;49.380;8.998;2023-07-29T01:15:22;4.95;;;3.80;;
26102;SDS011;69760;49.380;8.998;2023-07-29T01:18:05;5.72;;;4.55;;
26102;SDS011;69760;49.380;8.998;2023-07-29T01:20:37;5.40;;;4.47;;
26102;SDS011;69760;49.380;8.998;2023-07-29T01:23:08;5.50;;;4.90;;
26102;SDS011;69760;49.380;8.998;2023-07-29T01:25:34;5.07;;;4.28;;
26102;SDS011;69760;49.380;8.998;2023-07-29T01:27:59;6.85;;;5.50;;
26102;SDS011;69760;49.380;8.998;2023-07-29T01:30:26;8.05;;;4.90;;
26102;SDS011;69760;49.380;8.998;2023-07-29T01:33:04;5.03;;;4.22;;
26102;SDS011;69760;49.380;8.998;2023-07-29T01:38:24;5.53;;;5.00;;
26102;SDS011;69760;49.380;8.998;2023-07-29T01:40:56;5.97;;;4.70;;
26102;SDS011;69760;49.380;8.998;2023-07-29T01:43:26;5.57;;;4.55;;
26102;SDS011;69760;49.380;8.998;2023-07-29T01:45:52;6.55;;;4.80;;
26102;SDS011;69760;49.380;8.998;2023-07-29T01:48:18;7.68;;;5.38;;
26102;SDS011;69760;49.380;8.998;2023-07-29T01:50:44;7.20;;;5.53;;
26102;SDS011;69760;49.380;8.998;2023-07-29T01:53:09;6.95;;;4.85;;
26102;SDS011;69760;49.380;8.998;2023-07-29T01:55:35;11.70;;;6.38;;
26102;SDS011;69760;49.380;8.998;2023-07-29T01:58:00;9.77;;;6.50;;
26102;SDS011;69760;49.380;8.998;2023-07-29T02:00:26;7.68;;;5.57;;
26102;SDS011;69760;49.380;8.998;2023-07-29T02:02:51;8.00;;;5.53;;
26102;SDS011;69760;49.380;8.998;2023-07-29T02:05:17;7.50;;;5.55;;
26102;SDS011;69760;49.380;8.998;2023-07-29T02:07:43;7.95;;;5.72;;
26102;SDS011;69760;49.380;8.998;2023-07-29T02:10:08;5.63;;;4.82;;
26102;SDS011;69760;49.380;8.998;2023-07-29T02:12:34;6.60;;;5.22;;
26102;SDS011;69760;49.380;8.998;2023-07-29T02:14:59;7.25;;;5.93;;
26102;SDS011;69760;49.380;8.998;2023-07-29T02:17:25;8.02;;;6.30;;
26102;SDS011;69760;49.380;8.998;2023-07-29T02:19:51;8.98;;;6.45;;
26102;SDS011;69760;49.380;8.998;2023-07-29T02:22:17;7.18;;;6.03;;
26102;SDS011;69760;49.380;8.998;2023-07-29T02:24:43;6.93;;;5.35;;
26102;SDS011;69760;49.380;8.998;2023-07-29T02:27:09;6.90;;;5.53;;
26102;SDS011;69760;49.380;8.998;2023-07-29T02:29:34;6.95;;;5.30;;
26102;SDS011;69760;49.380;8.998;2023-07-29T02:32:00;6.35;;;5.28;;
26102;SDS011;69760;49.380;8.998;2023-07-29T02:34:26;7.28;;;5.47;;
26102;SDS011;69760;49.380;8.998;2023-07-29T02:36:51;6.10;;;4.45;;
26102;SDS011;69760;49.380;8.998;2023-07-29T02:39:17;11.00;;;5.78;;
26102;SDS011;69760;49.380;8.998;2023-07-29T02:41:42;4.82;;;4.32;;
26102;SDS011;69760;49.380;8.998;2023-07-29T02:44:08;6.40;;;4.78;;
26102;SDS011;69760;49.380;8.998;2023-07-29T02:46:33;7.55;;;5.43;;
26102;SDS011;69760;49.380;8.998;2023-07-29T02:48:59;6.07;;;4.75;;
26102;SDS011;69760;49.380;8.998;2023-07-29T02:51:24;6.93;;;4.85;;
26102;SDS011;69760;49.380;8.998;2023-07-29T02:53:50;8.48;;;5.25;;
26102;SDS011;69760;49.380;8.998;2023-07-29T02:56:16;6.18;;;4.65;;
26102;SDS011;69760;49.380;8.998;2023-07-29T02:58:41;7.13;;;4.88;;
26102;SDS011;69760;49.380;8.998;2023-07-29T03:01:07;6.43;;;4.50;;
26102;SDS011;69760;49.380;8.998;2023-07-29T03:03:32;4.72;;;4.15;;
26102;SDS011;69760;49.380;8.998;2023-07-29T03:05:59;5.22;;;4.60;;
26102;SDS011;69760;49.380;8.998;2023-07-29T03:08:29;7.95;;;4.40;;
26102;SDS011;69760;49.380;8.998;2023-07-29T03:10:55;5.03;;;4.03;;
26102;SDS011;69760;49.380;8.998;2023-07-29T03:13:21;6.68;;;4.95;;
26102;SDS011;69760;49.380;8.998;2023-07-29T03:15:47;5.15;;;4.32;;
26102;SDS011;69760;49.380;8.998;2023-07-29T03:18:13;6.05;;;4.40;;
26102;SDS011;69760;49.380;8.998;2023-07-29T03:20:39;5.25;;;4.43;;
26102;SDS011;69760;49.380;8.998;2023-07-29T03:23:05;5.80;;;4.82;;
26102;SDS011;69760;49.380;8.998;2023-07-29T03:25:31;6.10;;;4.53;;
26102;SDS011;69760;49.380;8.998;2023-07-29T03:27:56;4.57;;;3.90;;
26102;SDS011;69760;49.380;8.998;2023-07-29T03:30:22;4.97;;;4.20;;
26102;SDS011;69760;49.380;8.998;2023-07-29T03:32:48;6.75;;;4.97;;
26102;SDS011;69760;49.380;8.998;2023-07-29T03:35:14;6.80;;;4.50;;
26102;SDS011;69760;49.380;8.998;2023-07-29T03:37:40;7.03;;;4.05;;
26102;SDS011;69760;49.380;8.998;2023-07-29T03:40:06;5.25;;;4.15;;
26102;SDS011;69760;49.380;8.998;2023-07-29T03:42:34;6.07;;;3.80;;
26102;SDS011;69760;49.380;8.998;2023-07-29T03:44:59;3.70;;;3.38;;
26102;SDS011;69760;49.380;8.998;2023-07-29T03:47:25;5.95;;;3.78;;
26102;SDS011;69760;49.380;8.998;2023-07-29T03:49:51;4.78;;;3.80;;
26102;SDS011;69760;49.380;8.998;2023-07-29T03:52:16;6.95;;;3.88;;
26102;SDS011;69760;49.380;8.998;2023-07-29T03:54:42;5.95;;;3.83;;
26102;SDS011;69760;49.380;8.998;2023-07-29T03:57:07;5.47;;;3.33;;
26102;SDS011;69760;49.380;8.998;2023-07-29T03:59:33;6.75;;;3.38;;
26102;SDS011;69760;49.380;8.998;2023-07-29T04:01:58;5.03;;;3.70;;
26102;SDS011;69760;49.380;8.998;2023-07-29T04:04:24;7.45;;;3.60;;
26102;SDS011;69760;49.380;8.998;2023-07-29T04:06:49;4.40;;;3.30;;
26102;SDS011;69760;49.380;8.998;2023-07-29T04:09:15;4.30;;;3.70;;
26102;SDS011;69760;49.380;8.998;2023-07-29T04:11:41;5.70;;;3.28;;
26102;SDS011;69760;49.380;8.998;2023-07-29T04:14:06;3.90;;;2.90;;
26102;SDS011;69760;49.380;8.998;2023-07-29T04:16:32;5.63;;;3.67;;
26102;SDS011;69760;49.380;8.998;2023-07-29T04:18:57;6.40;;;3.83;;
26102;SDS011;69760;49.380;8.998;2023-07-29T04:21:23;3.67;;;3.08;;
26102;SDS011;69760;49.380;8.998;2023-07-29T04:23:48;4.93;;;3.10;;
26102;SDS011;69760;49.380;8.998;2023-07-29T04:26:14;3.85;;;3.17;;
26102;SDS011;69760;49.380;8.998;2023-07-29T04:28:39;5.68;;;3.20;;
26102;SDS011;69760;49.380;8.998;2023-07-29T04:31:05;3.25;;;2.95;;
26102;SDS011;69760;49.380;8.998;2023-07-29T04:33:30;3.53;;;2.67;;
26102;SDS011;69760;49.380;8.998;2023-07-29T04:35:56;5.93;;;3.40;;
26102;SDS011;69760;49.380;8.998;2023-07-29T04:38:24;3.85;;;3.10;;
26102;SDS011;69760;49.380;8.998;2023-07-29T04:40:52;5.38;;;3.10;;
26102;SDS011;69760;49.380;8.998;2023-07-29T04:43:18;4.72;;;3.03;;
26102;SDS011;69760;49.380;8.998;2023-07-29T04:45:43;3.55;;;2.90;;
26102;SDS011;69760;49.380;8.998;2023-07-29T04:48:09;4.25;;;3.25;;
26102;SDS011;69760;49.380;8.998;2023-07-29T04:50:35;3.22;;;2.92;;
26102;SDS011;69760;49.380;8.998;2023-07-29T04:53:00;5.97;;;3.22;;
26102;SDS011;69760;49.380;8.998;2023-07-29T04:55:26;6.22;;;3.60;;
26102;SDS011;69760;49.380;8.998;2023-07-29T04:57:51;4.85;;;3.50;;
26102;SDS011;69760;49.380;8.998;2023-07-29T05:00:17;3.38;;;2.85;;
26102;SDS011;69760;49.380;8.998;2023-07-29T05:02:43;4.05;;;3.55;;
26102;SDS011;69760;49.380;8.998;2023-07-29T05:05:08;3.60;;;2.85;;
26102;SDS011;69760;49.380;8.998;2023-07-29T05:07:34;3.28;;;2.90;;
26102;SDS011;69760;49.380;8.998;2023-07-29T05:09:59;4.00;;;3.22;;
26102;SDS011;69760;49.380;8.998;2023-07-29T05:12:25;3.30;;;3.00;;
26102;SDS011;69760;49.380;8.998;2023-07-29T05:14:51;4.10;;;3.08;;
26102;SDS011;69760;49.380;8.998;2023-07-29T05:17:16;5.30;;;3.53;;
26102;SDS011;69760;49.380;8.998;2023-07-29T05:19:42;4.03;;;2.83;;
26102;SDS011;69760;49.380;8.998;2023-07-29T05:22:07;6.35;;;3.35;;
26102;SDS011;69760;49.380;8.998;2023-07-29T05:24:33;4.95;;;3.70;;
26102;SDS011;69760;49.380;8.998;2023-07-29T05:26:58;5.93;;;3.30;;
26102;SDS011;69760;49.380;8.998;2023-07-29T05:29:24;3.47;;;2.72;;
26102;SDS011;69760;49.380;8.998;2023-07-29T05:31:49;3.17;;;2.80;;
26102;SDS011;69760;49.380;8.998;2023-07-29T05:34:15;2.50;;;2.13;;
26102;SDS011;69760;49.380;8.998;2023-07-29T05:36:40;2.90;;;2.30;;
26102;SDS011;69760;49.380;8.998;2023-07-29T05:39:06;2.72;;;2.35;;
26102;SDS011;69760;49.380;8.998;2023-07-29T05:41:32;2.95;;;2.35;;
26102;SDS011;69760;49.380;8.998;2023-07-29T05:43:58;2.30;;;2.10;;
26102;SDS011;69760;49.380;8.998;2023-07-29T05:46:23;2.22;;;1.98;;
26102;SDS011;69760;49.380;8.998;2023-07-29T05:48:49;2.00;;;1.80;;
26102;SDS011;69760;49.380;8.998;2023-07-29T05:51:14;1.85;;;1.75;;
26102;SDS011;69760;49.380;8.998;2023-07-29T05:53:40;1.67;;;1.58;;
26102;SDS011;69760;49.380;8.998;2023-07-29T05:56:05;3.13;;;1.67;;
26102;SDS011;69760;49.380;8.998;2023-07-29T05:58:31;1.58;;;1.38;;
26102;SDS011;69760;49.380;8.998;2023-07-29T06:00:57;1.67;;;1.20;;
26102;SDS011;69760;49.380;8.998;2023-07-29T06:03:23;1.45;;;1.33;;
26102;SDS011;69760;49.380;8.998;2023-07-29T06:05:49;2.05;;;1.30;;
26102;SDS011;69760;49.380;8.998;2023-07-29T06:08:15;1.60;;;1.30;;
26102;SDS011;69760;49.380;8.998;2023-07-29T06:10:40;3.13;;;1.80;;
26102;SDS011;69760;49.380;8.998;2023-07-29T06:13:06;3.20;;;1.55;;
26102;SDS011;69760;49.380;8.998;2023-07-29T06:15:31;1.52;;;1.10;;
26102;SDS011;69760;49.380;8.998;2023-07-29T06:17:57;1.90;;;1.00;;
26102;SDS011;69760;49.380;8.998;2023-07-29T06:20:22;1.88;;;0.98;;
26102;SDS011;69760;49.380;8.998;2023-07-29T06:22:48;1.00;;;0.90;;
26102;SDS011;69760;49.380;8.998;2023-07-29T06:25:14;2.65;;;0.85;;
26102;SDS011;69760;49.380;8.998;2023-07-29T06:27:39;1.95;;;1.33;;
26102;SDS011;69760;49.380;8.998;2023-07-29T06:30:05;4.35;;;1.10;;
26102;SDS011;69760;49.380;8.998;2023-07-29T06:32:31;2.63;;;1.20;;
26102;SDS011;69760;49.380;8.998;2023-07-29T06:34:56;3.28;;;1.20;;
26102;SDS011;69760;49.380;8.998;2023-07-29T06:37:22;1.63;;;1.02;;
26102;SDS011;69760;49.380;8.998;2023-07-29T06:39:48;1.60;;;1.17;;
26102;SDS011;69760;49.380;8.998;2023-07-29T06:42:13;2.15;;;1.25;;
26102;SDS011;69760;49.380;8.998;2023-07-29T06:44:39;1.85;;;1.10;;
26102;SDS011;69760;49.380;8.998;2023-07-29T06:47:05;1.33;;;1.00;;
26102;SDS011;69760;49.380;8.998;2023-07-29T06:49:31;2.22;;;1.27;;
26102;SDS011;69760;49.380;8.998;2023-07-29T06:51:56;1.33;;;1.13;;
26102;SDS011;69760;49.380;8.998;2023-07-29T06:54:25;1.30;;;1.08;;
26102;SDS011;69760;49.380;8.998;2023-07-29T06:56:51;2.70;;;1.00;;
26102;SDS011;69760;49.380;8.998;2023-07-29T06:59:17;1.73;;;1.20;;
26102;SDS011;69760;49.380;8.998;2023-07-29T07:01:42;2.15;;;1.27;;
26102;SDS011;69760;49.380;8.998;2023-07-29T07:04:08;2.67;;;1.40;;
26102;SDS011;69760;49.380;8.998;2023-07-29T07:06:34;1.67;;;1.55;;
26102;SDS011;69760;49.380;8.998;2023-07-29T07:08:59;1.85;;;1.30;;
26102;SDS011;69760;49.380;8.998;2023-07-29T07:11:25;1.50;;;1.35;;
26102;SDS011;69760;49.380;8.998;2023-07-29T07:13:50;1.80;;;1.58;;
26102;SDS011;69760;49.380;8.998;2023-07-29T07:16:16;3.10;;;1.45;;
26102;SDS011;69760;49.380;8.998;2023-07-29T07:18:42;3.42;;;1.80;;
26102;SDS011;69760;49.380;8.998;2023-07-29T07:21:07;1.45;;;1.33;;
26102;SDS011;69760;49.380;8.998;2023-07-29T07:23:33;2.20;;;1.60;;
26102;SDS011;69760;49.380;8.998;2023-07-29T07:25:58;2.92;;;1.95;;
26102;SDS011;69760;49.380;8.998;2023-07-29T07:28:24;2.78;;;1.58;;
26102;SDS011;69760;49.380;8.998;2023-07-29T07:30:49;2.00;;;1.75;;
26102;SDS011;69760;49.380;8.998;2023-07-29T07:33:15;3.97;;;1.92;;
26102;SDS011;69760;49.380;8.998;2023-07-29T07:35:40;2.38;;;1.55;;
26102;SDS011;69760;49.380;8.998;2023-07-29T07:38:07;1.95;;;1.50;;
26102;SDS011;69760;49.380;8.998;2023-07-29T07:40:34;4.70;;;2.05;;
26102;SDS011;69760;49.380;8.998;2023-07-29T07:43:00;2.47;;;1.55;;
26102;SDS011;69760;49.380;8.998;2023-07-29T07:45:26;2.80;;;1.60;;
26102;SDS011;69760;49.380;8.998;2023-07-29T07:47:52;5.43;;;1.90;;
26102;SDS011;69760;49.380;8.998;2023-07-29T07:50:18;3.25;;;2.20;;
26102;SDS011;69760;49.380;8.998;2023-07-29T07:52:45;3.28;;;2.00;;
26102;SDS011;69760;49.380;8.998;2023-07-29T07:55:10;3.58;;;1.90;;
26102;SDS011;69760;49.380;8.998;2023-07-29T07:57:36;2.45;;;1.88;;
26102;SDS011;69760;49.380;8.998;2023-07-29T08:00:02;2.67;;;2.28;;
26102;SDS011;69760;49.380;8.998;2023-07-29T08:02:29;4.35;;;2.10;;
26102;SDS011;69760;49.380;8.998;2023-07-29T08:04:55;2.88;;;2.38;;
26102;SDS011;69760;49.380;8.998;2023-07-29T08:07:20;3.60;;;2.22;;
26102;SDS011;69760;49.380;8.998;2023-07-29T08:09:46;3.53;;;2.25;;
26102;SDS011;69760;49.380;8.998;2023-07-29T08:12:12;3.83;;;2.67;;
26102;SDS011;69760;49.380;8.998;2023-07-29T08:14:37;4.72;;;2.70;;
26102;SDS011;69760;49.380;8.998;2023-07-29T08:17:03;4.97;;;2.90;;
26102;SDS011;69760;49.380;8.998;2023-07-29T08:19:29;3.50;;;2.70;;
26102;SDS011;69760;49.380;8.998;2023-07-29T08:21:54;3.42;;;2.60;;
26102;SDS011;69760;49.380;8.998;2023-07-29T08:24:20;3.10;;;2.45;;
26102;SDS011;69760;49.380;8.998;2023-07-29T08:26:45;2.63;;;2.42;;
26102;SDS011;69760;49.380;8.998;2023-07-29T08:29:11;4.13;;;2.40;;
26102;SDS011;69760;49.380;8.998;2023-07-29T08:31:37;4.40;;;2.65;;
26102;SDS011;69760;49.380;8.998;2023-07-29T08:34:03;3.72;;;2.90;;
26102;SDS011;69760;49.380;8.998;2023-07-29T08:36:29;3.22;;;2.45;;
26102;SDS011;69760;49.380;8.998;2023-07-29T08:38:54;4.20;;;3.10;;
26102;SDS011;69760;49.380;8.998;2023-07-29T08:41:31;3.67;;;2.65;;
26102;SDS011;69760;49.380;8.998;2023-07-29T08:46:37;3.15;;;2.40;;
26102;SDS011;69760;49.380;8.998;2023-07-29T08:49:03;3.42;;;2.60;;
26102;SDS011;69760;49.380;8.998;2023-07-29T08:51:29;7.03;;;2.80;;
26102;SDS011;69760;49.380;8.998;2023-07-29T08:53:56;3.55;;;2.10;;
26102;SDS011;69760;49.380;8.998;2023-07-29T08:56:24;2.83;;;2.22;;
26102;SDS011;69760;49.380;8.998;2023-07-29T08:58:50;4.68;;;2.10;;
26102;SDS011;69760;49.380;8.998;2023-07-29T09:01:16;3.05;;;2.05;;
26102;SDS011;69760;49.380;8.998;2023-07-29T09:03:42;3.35;;;2.10;;
26102;SDS011;69760;49.380;8.998;2023-07-29T09:06:08;3.60;;;1.83;;
26102;SDS011;69760;49.380;8.998;2023-07-29T09:08:34;3.67;;;2.25;;
26102;SDS011;69760;49.380;8.998;2023-07-29T09:11:00;4.03;;;2.00;;
26102;SDS011;69760;49.380;8.998;2023-07-29T09:13:26;4.22;;;2.00;;
26102;SDS011;69760;49.380;8.998;2023-07-29T09:15:55;5.13;;;2.50;;
26102;SDS011;69760;49.380;8.998;2023-07-29T09:18:22;5.97;;;2.03;;
26102;SDS011;69760;49.380;8.998;2023-07-29T09:20:50;3.15;;;2.05;;
26102;SDS011;69760;49.380;8.998;2023-07-29T09:23:16;5.82;;;1.73;;
26102;SDS011;69760;49.380;8.998;2023-07-29T09:25:41;5.95;;;2.10;;
26102;SDS011;69760;49.380;8.998;2023-07-29T09:28:08;4.57;;;2.20;;
26102;SDS011;69760;49.380;8.998;2023-07-29T09:30:36;2.90;;;1.90;;
26102;SDS011;69760;49.380;8.998;2023-07-29T09:33:05;5.88;;;2.20;;
26102;SDS011;69760;49.380;8.998;2023-07-29T09:35:35;3.30;;;2.17;;
26102;SDS011;69760;49.380;8.998;2023-07-29T09:38:02;1.98;;;1.70;;
26102;SDS011;69760;49.380;8.998;2023-07-29T09:40:38;2.03;;;1.83;;
26102;SDS011;69760;49.380;8.998;2023-07-29T09:43:05;3.45;;;2.28;;
26102;SDS011;69760;49.380;8.998;2023-07-29T09:45:32;2.72;;;1.95;;
26102;SDS011;69760;49.380;8.998;2023-07-29T09:47:59;2.10;;;1.90;;
26102;SDS011;69760;49.380;8.998;2023-07-29T09:50:25;2.15;;;1.90;;
26102;SDS011;69760;49.380;8.998;2023-07-29T09:52:52;3.40;;;2.08;;
26102;SDS011;69760;49.380;8.998;2023-07-29T10:08:48;3.05;;;1.75;;
26102;SDS011;69760;49.380;8.998;2023-07-29T10:11:15;1.85;;;1.60;;
26102;SDS011;69760;49.380;8.998;2023-07-29T16:02:10;2.10;;;1.48;;
26102;SDS011;69760;49.380;8.998;2023-07-29T16:39:58;3.60;;;1.80;;
26102;SDS011;69760;49.380;8.998;2023-07-29T16:42:24;3.65;;;1.85;;
26102;SDS011;69760;49.380;8.998;2023-07-29T16:44:49;1.92;;;1.60;;
26102;SDS011;69760;49.380;8.998;2023-07-29T16:47:15;3.75;;;1.88;;
26102;SDS011;69760;49.380;8.998;2023-07-29T16:49:41;2.83;;;2.10;;
26102;SDS011;69760;49.380;8.998;2023-07-29T16:52:07;2.00;;;1.80;;
